createdAt,value
2023-01-17T00:00:32.730Z,1.90
2023-01-17T00:02:59.310Z,2.60
2023-01-17T00:05:44.433Z,2.78
2023-01-17T00:08:32.582Z,2.92
2023-01-17T00:10:59.237Z,2.20
2023-01-17T00:13:25.592Z,2.33
2023-01-17T00:15:52.203Z,1.98
2023-01-17T00:18:18.739Z,1.98
2023-01-17T00:21:03.904Z,1.92
2023-01-17T00:23:48.690Z,2.08
2023-01-17T00:26:18.210Z,2.15
2023-01-17T00:28:45.775Z,1.70
2023-01-17T00:31:14.368Z,1.95
2023-01-17T00:33:40.838Z,1.65
2023-01-17T00:36:08.120Z,1.90
2023-01-17T00:38:37.640Z,1.98
2023-01-17T00:41:07.561Z,2.05
2023-01-17T00:43:52.727Z,2.15
2023-01-17T00:46:38.228Z,2.00
2023-01-17T00:49:24.044Z,1.90
2023-01-17T00:52:09.047Z,1.92
2023-01-17T00:54:53.864Z,2.00
2023-01-17T00:57:38.745Z,2.05
2023-01-17T01:00:24.589Z,1.85
2023-01-17T01:03:09.439Z,1.95
2023-01-17T01:05:55.728Z,1.95
2023-01-17T01:08:48.122Z,2.20
2023-01-17T01:11:36.013Z,2.00
2023-01-17T01:14:22.350Z,2.00
2023-01-17T01:17:07.845Z,2.60
2023-01-17T01:19:52.844Z,2.45
2023-01-17T01:22:37.844Z,2.17
2023-01-17T01:25:23.227Z,2.60
2023-01-17T01:28:08.158Z,2.38
2023-01-17T01:30:53.454Z,2.60
2023-01-17T01:33:20.255Z,3.13
2023-01-17T01:35:51.540Z,2.42
2023-01-17T01:38:19.739Z,2.58
2023-01-17T01:40:51.440Z,2.13
2023-01-17T01:43:20.883Z,2.47
2023-01-17T01:45:53.085Z,2.50
2023-01-17T01:48:33.569Z,2.40
2023-01-17T01:51:04.236Z,2.10
2023-01-17T01:53:34.580Z,2.50
2023-01-17T01:56:02.141Z,2.63
2023-01-17T01:58:34.096Z,2.40
2023-01-17T02:01:00.978Z,2.00
2023-01-17T02:03:31.489Z,2.50
2023-01-17T02:06:09.161Z,2.17
2023-01-17T02:08:36.292Z,2.63
2023-01-17T02:11:02.989Z,2.58
2023-01-17T02:13:31.344Z,2.65
2023-01-17T02:16:44.231Z,2.60
2023-01-17T02:19:48.217Z,2.63
2023-01-17T02:22:24.644Z,2.80
2023-01-17T02:25:28.563Z,2.90
2023-01-17T02:28:32.365Z,3.17
2023-01-17T02:31:04.625Z,3.60
2023-01-17T02:33:57.485Z,3.55
2023-01-17T02:36:31.750Z,3.50
2023-01-17T02:39:07.255Z,4.22
2023-01-17T02:41:38.865Z,4.25
2023-01-17T02:44:10.153Z,4.28
2023-01-17T02:46:48.375Z,4.50
2023-01-17T02:49:17.357Z,4.43
2023-01-17T02:52:07.663Z,4.60
2023-01-17T02:54:53.340Z,4.72
2023-01-17T02:57:32.256Z,4.55
2023-01-17T03:00:13.925Z,4.43
2023-01-17T03:03:11.955Z,5.30
2023-01-17T03:05:46.160Z,5.35
2023-01-17T03:08:13.295Z,5.75
2023-01-17T03:10:41.207Z,5.05
2023-01-17T03:13:07.687Z,5.28
2023-01-17T03:15:34.092Z,5.47
2023-01-17T03:18:04.985Z,5.53
2023-01-17T03:20:31.505Z,5.30
2023-01-17T03:22:57.882Z,6.03
2023-01-17T03:25:24.261Z,5.93
2023-01-17T03:27:50.644Z,6.10
2023-01-17T03:30:17.647Z,5.90
2023-01-17T03:32:44.028Z,6.65
2023-01-17T03:35:10.525Z,6.63
2023-01-17T03:37:36.881Z,7.00
2023-01-17T03:40:03.887Z,7.22
2023-01-17T03:42:30.235Z,7.28
2023-01-17T03:44:56.689Z,8.35
2023-01-17T03:47:23.022Z,8.80
2023-01-17T03:49:49.436Z,8.38
2023-01-17T03:52:15.868Z,8.85
2023-01-17T03:54:42.360Z,9.55
2023-01-17T03:57:10.832Z,10.32
2023-01-17T03:59:37.333Z,9.20
2023-01-17T04:02:03.965Z,9.10
2023-01-17T04:04:30.507Z,10.52
2023-01-17T04:06:57.007Z,10.43
2023-01-17T04:09:23.357Z,10.38
2023-01-17T04:11:50.876Z,10.10
2023-01-17T04:14:17.643Z,11.13
2023-01-17T04:16:44.393Z,12.05
2023-01-17T04:19:13.284Z,12.13
2023-01-17T04:21:39.944Z,11.23
2023-01-17T04:24:06.728Z,11.50
2023-01-17T04:26:33.368Z,7.45
2023-01-17T04:28:59.721Z,4.65
2023-01-17T04:31:26.328Z,5.15
2023-01-17T04:33:52.833Z,5.10
2023-01-17T04:36:19.310Z,5.55
2023-01-17T04:38:45.655Z,5.82
2023-01-17T04:41:12.179Z,5.60
2023-01-17T04:43:38.725Z,5.68
2023-01-17T04:46:09.800Z,5.57
2023-01-17T04:48:36.535Z,5.75
2023-01-17T04:51:04.989Z,5.55
2023-01-17T04:53:32.096Z,5.47
2023-01-17T04:55:58.495Z,5.13
2023-01-17T04:58:24.872Z,5.20
2023-01-17T05:00:51.696Z,5.30
2023-01-17T05:03:18.953Z,5.38
2023-01-17T05:05:45.497Z,5.55
2023-01-17T05:08:11.992Z,5.00
2023-01-17T05:10:38.371Z,5.85
2023-01-17T05:13:04.877Z,5.88
2023-01-17T05:15:31.310Z,5.93
2023-01-17T05:17:57.935Z,6.47
2023-01-17T05:20:26.296Z,6.57
2023-01-17T05:22:57.077Z,6.40
2023-01-17T05:25:25.506Z,6.65
2023-01-17T05:27:52.535Z,6.65
2023-01-17T05:30:19.893Z,6.75
2023-01-17T05:32:54.058Z,7.07
2023-01-17T05:35:24.450Z,7.78
2023-01-17T05:37:51.713Z,7.80
2023-01-17T05:40:20.371Z,7.25
2023-01-17T05:42:48.091Z,7.85
2023-01-17T05:45:16.998Z,7.78
2023-01-17T05:47:44.569Z,7.10
2023-01-17T05:50:19.360Z,7.30
2023-01-17T05:52:53.389Z,7.18
2023-01-17T05:55:20.835Z,6.50
2023-01-17T05:57:47.467Z,7.30
2023-01-17T06:00:14.838Z,5.38
2023-01-17T06:02:41.489Z,4.05
2023-01-17T06:05:08.216Z,3.10
2023-01-17T06:07:34.619Z,3.30
2023-01-17T06:10:02.296Z,2.70
2023-01-17T06:12:28.837Z,2.20
2023-01-17T06:14:55.371Z,2.10
2023-01-17T06:17:21.819Z,1.60
2023-01-17T06:19:48.240Z,1.52
2023-01-17T06:22:14.630Z,1.42
2023-01-17T06:24:41.061Z,1.77
2023-01-17T06:27:09.704Z,1.45
2023-01-17T06:29:36.464Z,1.30
2023-01-17T06:32:03.080Z,1.48
2023-01-17T06:34:29.520Z,1.15
2023-01-17T06:36:56.067Z,1.33
2023-01-17T06:39:22.596Z,1.25
2023-01-17T06:41:49.243Z,1.20
2023-01-17T06:44:15.739Z,1.10
2023-01-17T06:46:42.497Z,1.33
2023-01-17T06:49:12.125Z,1.33
2023-01-17T06:51:38.710Z,1.40
2023-01-17T06:54:13.236Z,1.40
2023-01-17T06:56:39.825Z,1.48
2023-01-17T06:59:06.281Z,1.10
2023-01-17T07:01:32.915Z,1.55
2023-01-17T07:03:59.398Z,1.40
2023-01-17T07:06:31.956Z,1.45
2023-01-17T07:08:59.076Z,2.28
2023-01-17T07:11:27.232Z,1.80
2023-01-17T07:13:54.069Z,1.73
2023-01-17T07:16:20.620Z,1.58
2023-01-17T07:18:47.065Z,1.33
2023-01-17T07:21:14.813Z,2.05
2023-01-17T07:23:41.642Z,1.52
2023-01-17T07:26:08.205Z,2.03
2023-01-17T07:28:34.716Z,1.70
2023-01-17T07:31:06.808Z,2.15
2023-01-17T07:33:33.533Z,1.33
2023-01-17T07:36:04.791Z,1.50
2023-01-17T07:38:31.362Z,1.80
2023-01-17T07:40:59.534Z,1.60
2023-01-17T07:43:26.160Z,1.35
2023-01-17T07:45:57.441Z,1.90
2023-01-17T07:48:25.775Z,1.95
2023-01-17T07:50:56.797Z,2.50
2023-01-17T07:53:25.458Z,2.28
2023-01-17T07:55:52.394Z,2.13
2023-01-17T07:58:19.140Z,2.10
2023-01-17T08:00:45.937Z,2.67
2023-01-17T08:03:14.745Z,2.58
2023-01-17T08:05:44.198Z,2.10
2023-01-17T08:08:10.589Z,2.50
2023-01-17T08:10:37.018Z,2.88
2023-01-17T08:13:03.530Z,2.25
2023-01-17T08:15:36.083Z,2.40
2023-01-17T08:18:02.599Z,2.22
2023-01-17T08:20:29.021Z,2.03
2023-01-17T08:22:56.606Z,2.00
2023-01-17T08:25:24.881Z,1.92
2023-01-17T08:27:56.087Z,1.83
2023-01-17T08:30:22.735Z,2.20
2023-01-17T08:32:49.099Z,2.28
2023-01-17T08:35:15.658Z,2.28
2023-01-17T08:37:42.111Z,2.58
2023-01-17T08:40:10.546Z,2.28
2023-01-17T08:42:43.926Z,2.10
2023-01-17T08:45:11.779Z,2.00
2023-01-17T08:47:38.206Z,1.70
2023-01-17T08:50:06.874Z,1.67
2023-01-17T08:52:34.247Z,1.65
2023-01-17T08:55:00.771Z,2.00
2023-01-17T08:57:27.517Z,2.10
2023-01-17T08:59:54.002Z,2.47
2023-01-17T09:02:20.621Z,1.77
2023-01-17T09:04:49.494Z,1.90
2023-01-17T09:07:18.356Z,2.25
2023-01-17T09:09:44.887Z,2.40
2023-01-17T09:12:11.661Z,2.78
2023-01-17T09:14:38.195Z,2.33
2023-01-17T09:17:08.261Z,2.05
2023-01-17T09:19:35.678Z,2.65
2023-01-17T09:22:04.638Z,2.20
2023-01-17T09:24:32.792Z,3.15
2023-01-17T09:27:00.257Z,2.15
2023-01-17T09:29:26.891Z,2.70
2023-01-17T09:31:54.437Z,2.10
2023-01-17T09:34:25.332Z,1.88
2023-01-17T09:36:51.759Z,2.70
2023-01-17T09:39:18.653Z,2.38
2023-01-17T09:41:52.687Z,2.40
2023-01-17T09:44:24.630Z,2.15
2023-01-17T09:47:02.010Z,2.83
2023-01-17T09:49:39.936Z,2.83
2023-01-17T09:52:11.068Z,2.40
2023-01-17T09:54:43.313Z,7.03
2023-01-17T09:57:39.028Z,2.42
2023-01-17T10:00:44.194Z,1.95
2023-01-17T10:03:45.691Z,2.45
2023-01-17T10:06:22.329Z,2.28
2023-01-17T10:09:18.341Z,2.88
2023-01-17T10:11:53.805Z,2.38
2023-01-17T10:14:41.219Z,1.75
2023-01-17T10:17:16.031Z,2.40
2023-01-17T10:19:59.649Z,2.17
2023-01-17T10:22:31.015Z,2.58
2023-01-17T10:25:33.120Z,2.17
2023-01-17T10:28:12.921Z,2.50
2023-01-17T10:30:48.635Z,2.25
2023-01-17T10:33:19.577Z,2.40
2023-01-17T10:35:54.525Z,2.40
2023-01-17T10:38:26.559Z,2.10
2023-01-17T10:41:30.000Z,2.17
2023-01-17T10:44:11.434Z,2.15
2023-01-17T10:47:05.406Z,2.42
2023-01-17T10:49:31.906Z,1.67
2023-01-17T10:52:02.004Z,1.77
2023-01-17T10:54:51.338Z,1.98
2023-01-17T10:57:22.012Z,1.80
2023-01-17T10:59:49.341Z,2.05
2023-01-17T11:02:21.609Z,1.95
2023-01-17T11:04:54.270Z,2.28
2023-01-17T11:07:25.620Z,1.90
2023-01-17T11:09:54.525Z,1.90
2023-01-17T11:12:46.993Z,1.58
2023-01-17T11:15:13.280Z,1.80
2023-01-17T11:18:01.821Z,1.42
2023-01-17T11:20:40.259Z,2.03
2023-01-17T11:23:15.208Z,2.22
2023-01-17T11:25:52.997Z,1.65
2023-01-17T11:28:39.653Z,1.98
2023-01-17T11:31:23.117Z,2.13
2023-01-17T11:34:05.335Z,2.03
2023-01-17T11:36:32.734Z,1.85
2023-01-17T11:39:21.726Z,1.58
2023-01-17T11:41:48.599Z,2.05
2023-01-17T11:44:27.335Z,1.80
2023-01-17T11:47:11.796Z,1.73
2023-01-17T11:49:39.878Z,1.67
2023-01-17T11:52:26.196Z,1.98
2023-01-17T11:54:55.805Z,1.67
2023-01-17T11:57:33.281Z,1.30
2023-01-17T12:00:24.656Z,1.48
2023-01-17T12:03:13.825Z,1.60
2023-01-17T12:06:08.101Z,1.45
2023-01-17T12:08:59.265Z,1.20
2023-01-17T12:11:36.009Z,1.80
2023-01-17T12:14:36.464Z,1.25
2023-01-17T12:17:33.398Z,1.23
2023-01-17T12:20:05.746Z,1.40
2023-01-17T12:22:53.535Z,1.48
2023-01-17T12:25:29.100Z,1.58
2023-01-17T12:27:55.483Z,1.45
2023-01-17T12:30:35.349Z,2.00
2023-01-17T12:33:08.653Z,1.42
2023-01-17T12:35:53.904Z,1.45
2023-01-17T12:38:35.424Z,1.08
2023-01-17T12:41:17.506Z,1.40
2023-01-17T12:43:44.744Z,1.50
2023-01-17T12:46:24.551Z,1.50
2023-01-17T12:48:55.925Z,1.38
2023-01-17T12:51:30.257Z,1.80
2023-01-17T12:54:08.539Z,1.98
2023-01-17T12:56:41.777Z,2.67
2023-01-17T12:59:20.091Z,1.70
2023-01-17T13:01:57.657Z,1.70
2023-01-17T13:04:34.159Z,2.90
2023-01-17T13:07:00.794Z,1.73
2023-01-17T13:09:32.874Z,1.50
2023-01-17T13:12:12.794Z,1.20
2023-01-17T13:14:39.183Z,1.80
2023-01-17T13:17:34.044Z,1.52
2023-01-17T13:20:14.149Z,1.75
2023-01-17T13:22:42.841Z,2.80
2023-01-17T13:25:24.527Z,2.42
2023-01-17T13:28:03.128Z,2.00
2023-01-17T13:30:43.136Z,1.50
2023-01-17T13:33:37.437Z,1.75
2023-01-17T13:36:25.366Z,2.30
2023-01-17T13:39:27.130Z,1.33
2023-01-17T13:42:08.830Z,1.73
2023-01-17T13:44:36.348Z,1.80
2023-01-17T13:47:10.189Z,1.40
2023-01-17T13:49:49.447Z,2.00
2023-01-17T13:52:18.825Z,2.40
2023-01-17T13:54:56.510Z,1.40
2023-01-17T13:57:22.993Z,1.90
2023-01-17T13:59:53.077Z,2.00
2023-01-17T14:02:31.715Z,2.55
2023-01-17T14:05:37.764Z,1.65
2023-01-17T14:08:12.999Z,1.75
2023-01-17T14:10:47.230Z,1.65
2023-01-17T14:13:36.295Z,1.50
2023-01-17T14:16:26.308Z,1.52
2023-01-17T14:18:54.433Z,2.00
2023-01-17T14:21:25.274Z,2.00
2023-01-17T14:23:58.679Z,1.60
2023-01-17T14:26:53.835Z,1.88
2023-01-17T14:29:42.427Z,1.30
2023-01-17T14:32:12.362Z,1.50
2023-01-17T14:34:39.099Z,1.77
2023-01-17T14:37:17.357Z,1.83
2023-01-17T14:39:46.091Z,2.17
2023-01-17T14:42:15.584Z,1.98
2023-01-17T14:44:49.096Z,2.00
2023-01-17T14:47:16.589Z,1.90
2023-01-17T14:49:43.885Z,1.98
2023-01-17T14:52:16.200Z,2.47
2023-01-17T14:54:50.925Z,2.85
2023-01-17T14:57:28.603Z,2.00
2023-01-17T15:00:20.291Z,1.65
2023-01-17T15:02:48.407Z,2.05
2023-01-17T15:05:17.100Z,1.83
2023-01-17T15:07:46.844Z,2.10
2023-01-17T15:10:15.901Z,2.85
2023-01-17T15:12:46.512Z,2.00
2023-01-17T15:15:35.581Z,1.88
2023-01-17T15:18:10.113Z,1.98
2023-01-17T15:20:37.698Z,2.08
2023-01-17T15:23:05.342Z,1.55
2023-01-17T15:25:32.112Z,1.65
2023-01-17T15:27:59.057Z,1.60
2023-01-17T15:30:25.645Z,1.90
2023-01-17T15:32:52.923Z,1.60
2023-01-17T15:35:20.567Z,1.63
2023-01-17T15:37:52.646Z,1.65
2023-01-17T15:40:25.441Z,1.90
2023-01-17T15:42:59.066Z,3.40
2023-01-17T15:45:32.576Z,4.20
2023-01-17T15:48:38.933Z,5.00
2023-01-17T15:51:05.679Z,3.88
2023-01-17T15:53:35.308Z,5.43
2023-01-17T15:56:20.636Z,2.15
2023-01-17T15:58:50.013Z,3.58
2023-01-17T16:01:23.801Z,2.33
2023-01-17T16:03:54.797Z,4.13
2023-01-17T16:06:45.809Z,3.65
2023-01-17T16:09:23.236Z,2.83
2023-01-17T16:11:49.644Z,5.07
2023-01-17T16:14:16.833Z,3.55
2023-01-17T16:16:54.084Z,7.40
2023-01-17T16:19:21.467Z,2.60
2023-01-17T16:21:48.346Z,2.85
2023-01-17T16:24:15.056Z,2.42
2023-01-17T16:26:41.546Z,4.13
2023-01-17T16:29:08.140Z,3.25
2023-01-17T16:31:35.317Z,2.92
2023-01-17T16:34:01.833Z,4.30
2023-01-17T16:36:28.670Z,2.90
2023-01-17T16:38:55.191Z,2.80
2023-01-17T16:41:22.298Z,4.32
2023-01-17T16:44:06.217Z,4.65
2023-01-17T16:46:33.168Z,8.38
2023-01-17T16:49:01.047Z,6.53
2023-01-17T16:51:28.453Z,3.92
2023-01-17T16:53:54.870Z,4.22
2023-01-17T16:56:23.135Z,3.65
2023-01-17T16:58:51.124Z,6.55
2023-01-17T17:01:20.584Z,3.97
2023-01-17T17:03:47.111Z,3.88
2023-01-17T17:06:13.598Z,3.85
2023-01-17T17:08:39.964Z,4.35
2023-01-17T17:11:18.509Z,5.60
2023-01-17T17:13:46.769Z,6.70
2023-01-17T17:16:26.427Z,5.90
2023-01-17T17:18:58.465Z,5.22
2023-01-17T17:21:25.997Z,5.22
2023-01-17T17:23:57.877Z,5.25
2023-01-17T17:26:27.169Z,4.95
2023-01-17T17:28:54.468Z,5.43
2023-01-17T17:31:20.963Z,4.65
2023-01-17T17:33:47.738Z,4.60
2023-01-17T17:36:14.504Z,5.32
2023-01-17T17:38:53.451Z,6.05
2023-01-17T17:41:31.583Z,5.22
2023-01-17T17:44:00.538Z,6.28
2023-01-17T17:46:27.392Z,6.30
2023-01-17T17:48:53.868Z,6.75
2023-01-17T17:51:22.958Z,8.13
2023-01-17T17:53:50.192Z,9.80
2023-01-17T17:56:16.904Z,9.07
2023-01-17T17:58:46.033Z,5.43
2023-01-17T18:01:12.843Z,6.38
2023-01-17T18:03:39.663Z,5.70
2023-01-17T18:06:08.889Z,5.13
2023-01-17T18:08:36.927Z,5.03
2023-01-17T18:11:07.348Z,5.30
2023-01-17T18:13:34.120Z,5.00
2023-01-17T18:16:04.650Z,5.28
2023-01-17T18:18:32.199Z,4.07
2023-01-17T18:21:28.930Z,5.28
2023-01-17T18:24:04.181Z,4.78
2023-01-17T18:26:33.920Z,5.43
2023-01-17T18:29:01.978Z,5.15
2023-01-17T18:31:30.154Z,6.72
2023-01-17T18:34:03.964Z,5.72
2023-01-17T18:36:30.554Z,5.57
2023-01-17T18:38:57.040Z,6.88
2023-01-17T18:41:26.443Z,13.45
2023-01-17T18:43:53.177Z,9.57
2023-01-17T18:46:20.188Z,9.25
2023-01-17T18:48:47.251Z,10.98
2023-01-17T18:51:15.854Z,5.32
2023-01-17T18:53:44.481Z,6.63
2023-01-17T18:56:13.926Z,6.15
2023-01-17T18:58:42.937Z,7.90
2023-01-17T19:01:21.068Z,8.55
2023-01-17T19:03:49.452Z,7.13
2023-01-17T19:06:20.031Z,7.75
2023-01-17T19:08:48.313Z,7.72
2023-01-17T19:11:15.357Z,9.77
2023-01-17T19:13:41.903Z,14.98
2023-01-17T19:16:12.710Z,8.13
2023-01-17T19:18:39.133Z,8.52
2023-01-17T19:21:16.883Z,8.48
2023-01-17T19:23:43.545Z,8.45
2023-01-17T19:26:11.481Z,7.15
2023-01-17T19:28:40.411Z,7.35
2023-01-17T19:31:12.818Z,7.43
2023-01-17T19:33:42.013Z,7.65
2023-01-17T19:36:11.796Z,7.60
2023-01-17T19:38:38.216Z,7.60
2023-01-17T19:41:26.539Z,7.35
2023-01-17T19:44:01.846Z,7.75
2023-01-17T19:46:28.529Z,8.77
2023-01-17T19:48:56.635Z,7.40
2023-01-17T19:51:24.633Z,8.32
2023-01-17T19:53:51.351Z,7.72
2023-01-17T19:56:20.568Z,9.32
2023-01-17T19:58:49.065Z,10.13
2023-01-17T20:01:18.561Z,9.93
2023-01-17T20:03:46.023Z,9.15
2023-01-17T20:06:14.634Z,12.73
2023-01-17T20:08:41.499Z,6.88
2023-01-17T20:11:10.788Z,7.60
2023-01-17T20:13:37.351Z,8.20
2023-01-17T20:16:06.151Z,7.75
2023-01-17T20:18:33.697Z,9.15
2023-01-17T20:21:05.071Z,7.25
2023-01-17T20:23:36.178Z,8.55
2023-01-17T20:26:04.585Z,11.65
2023-01-17T20:28:35.741Z,7.22
2023-01-17T20:31:17.002Z,7.47
2023-01-17T20:33:45.341Z,11.55
2023-01-17T20:36:14.991Z,8.25
2023-01-17T20:38:44.863Z,7.10
2023-01-17T20:41:23.147Z,9.20
2023-01-17T20:43:55.265Z,8.50
2023-01-17T20:46:24.890Z,15.32
2023-01-17T20:48:53.427Z,10.00
2023-01-17T20:51:20.695Z,8.18
2023-01-17T20:53:51.688Z,7.20
2023-01-17T20:56:18.769Z,8.38
2023-01-17T20:58:45.169Z,6.93
2023-01-17T21:01:20.014Z,8.52
2023-01-17T21:03:49.154Z,10.25
2023-01-17T21:06:15.558Z,6.65
2023-01-17T21:08:45.227Z,6.80
2023-01-17T21:11:15.098Z,5.95
2023-01-17T21:13:42.492Z,7.72
2023-01-17T21:16:10.648Z,7.05
2023-01-17T21:18:37.349Z,6.80
2023-01-17T21:21:07.327Z,7.78
2023-01-17T21:23:38.093Z,7.03
2023-01-17T21:26:06.067Z,7.88
2023-01-17T21:28:35.281Z,7.68
2023-01-17T21:31:07.231Z,7.45
2023-01-17T21:33:33.648Z,10.32
2023-01-17T21:36:08.449Z,10.15
2023-01-17T21:38:34.955Z,9.70
2023-01-17T21:41:01.689Z,9.15
2023-01-17T21:43:28.233Z,9.00
2023-01-17T21:45:54.730Z,7.32
2023-01-17T21:48:21.242Z,8.07
2023-01-17T21:50:47.655Z,10.57
2023-01-17T21:53:14.141Z,10.05
2023-01-17T21:55:59.122Z,8.25
2023-01-17T21:58:44.765Z,8.90
2023-01-17T22:01:18.389Z,7.63
2023-01-17T22:03:48.973Z,7.40
2023-01-17T22:06:15.584Z,7.75
2023-01-17T22:08:42.089Z,6.88
2023-01-17T22:11:14.735Z,7.35
2023-01-17T22:13:42.557Z,7.97
2023-01-17T22:16:11.976Z,7.80
2023-01-17T22:18:39.723Z,7.80
2023-01-17T22:21:12.321Z,7.47
2023-01-17T22:23:39.642Z,7.18
2023-01-17T22:26:10.297Z,8.68
2023-01-17T22:28:37.970Z,9.85
2023-01-17T22:31:20.617Z,9.50
2023-01-17T22:33:51.652Z,9.75
2023-01-17T22:36:18.116Z,10.63
2023-01-17T22:38:44.521Z,9.85
2023-01-17T22:41:15.994Z,11.50
2023-01-17T22:43:44.955Z,12.63
2023-01-17T22:46:15.228Z,11.32
2023-01-17T22:48:42.415Z,12.07
2023-01-17T22:51:11.734Z,11.65
2023-01-17T22:53:49.958Z,12.00
2023-01-17T22:56:19.749Z,12.35
2023-01-17T22:58:48.570Z,11.95
2023-01-17T23:01:20.592Z,11.85
2023-01-17T23:03:52.158Z,15.07
2023-01-17T23:06:21.863Z,12.50
2023-01-17T23:08:50.941Z,12.43
2023-01-17T23:11:40.858Z,12.60
2023-01-17T23:14:16.712Z,13.00
2023-01-17T23:17:04.680Z,13.50
2023-01-17T23:19:42.225Z,13.00
2023-01-17T23:22:18.911Z,13.60
2023-01-17T23:24:53.955Z,12.07
2023-01-17T23:27:47.632Z,13.82
2023-01-17T23:30:15.683Z,12.93
2023-01-17T23:32:47.933Z,12.80
2023-01-17T23:35:15.430Z,13.18
2023-01-17T23:38:00.460Z,13.00
2023-01-17T23:40:27.324Z,13.80
2023-01-17T23:43:12.416Z,13.95
2023-01-17T23:45:39.533Z,13.73
2023-01-17T23:48:11.554Z,13.80
2023-01-17T23:50:40.277Z,15.27
2023-01-17T23:53:07.415Z,16.13
2023-01-17T23:55:40.232Z,15.00
2023-01-17T23:58:09.672Z,15.65
